sensor_id;sensor_type;location;lat;lon;timestamp;P1;durP1;ratioP1;P2;durP2;ratioP2
58874;SDS011;44652;49.040;12.126;2024-03-08T05:59:08;10.20;;;5.22;;
58874;SDS011;44652;49.040;12.126;2024-03-08T06:01:35;8.07;;;4.75;;
58874;SDS011;44652;49.040;12.126;2024-03-08T06:04:03;10.20;;;5.75;;
58874;SDS011;44652;49.040;12.126;2024-03-08T06:06:30;9.95;;;5.88;;
58874;SDS011;44652;49.040;12.126;2024-03-08T06:08:57;8.45;;;5.72;;
58874;SDS011;44652;49.040;12.126;2024-03-08T06:11:25;7.40;;;4.05;;
58874;SDS011;44652;49.040;12.126;2024-03-08T06:13:57;13.70;;;6.63;;
58874;SDS011;44652;49.040;12.126;2024-03-08T06:16:26;12.30;;;5.55;;
58874;SDS011;44652;49.040;12.126;2024-03-08T06:18:56;7.63;;;4.97;;
58874;SDS011;44652;49.040;12.126;2024-03-08T06:21:24;8.43;;;5.50;;
58874;SDS011;44652;49.040;12.126;2024-03-08T06:23:54;12.73;;;7.68;;
58874;SDS011;44652;49.040;12.126;2024-03-08T06:26:21;9.60;;;6.13;;
58874;SDS011;44652;49.040;12.126;2024-03-08T06:28:48;10.07;;;5.97;;
58874;SDS011;44652;49.040;12.126;2024-03-08T06:31:15;10.65;;;5.30;;
58874;SDS011;44652;49.040;12.126;2024-03-08T06:33:42;8.20;;;5.53;;
58874;SDS011;44652;49.040;12.126;2024-03-08T06:36:09;7.82;;;5.55;;
58874;SDS011;44652;49.040;12.126;2024-03-08T06:38:38;10.07;;;5.22;;
58874;SDS011;44652;49.040;12.126;2024-03-08T06:41:09;9.93;;;6.18;;
58874;SDS011;44652;49.040;12.126;2024-03-08T06:43:42;16.48;;;5.85;;
58874;SDS011;44652;49.040;12.126;2024-03-08T06:46:14;8.10;;;5.88;;
58874;SDS011;44652;49.040;12.126;2024-03-08T06:51:08;9.38;;;6.22;;
58874;SDS011;44652;49.040;12.126;2024-03-08T06:53:35;9.15;;;4.38;;
58874;SDS011;44652;49.040;12.126;2024-03-08T06:56:02;11.45;;;6.82;;
58874;SDS011;44652;49.040;12.126;2024-03-08T06:58:29;8.57;;;5.18;;
58874;SDS011;44652;49.040;12.126;2024-03-08T07:00:55;10.50;;;4.75;;
58874;SDS011;44652;49.040;12.126;2024-03-08T07:03:27;8.70;;;5.47;;
58874;SDS011;44652;49.040;12.126;2024-03-08T07:05:56;9.68;;;5.15;;
58874;SDS011;44652;49.040;12.126;2024-03-08T07:08:25;8.80;;;6.18;;
58874;SDS011;44652;49.040;12.126;2024-03-08T07:10:56;12.55;;;6.53;;
58874;SDS011;44652;49.040;12.126;2024-03-08T07:13:25;13.52;;;4.82;;
58874;SDS011;44652;49.040;12.126;2024-03-08T07:15:53;12.02;;;7.25;;
58874;SDS011;44652;49.040;12.126;2024-03-08T07:18:21;9.27;;;6.07;;
58874;SDS011;44652;49.040;12.126;2024-03-08T07:20:48;14.40;;;7.25;;
58874;SDS011;44652;49.040;12.126;2024-03-08T07:23:15;11.75;;;8.43;;
58874;SDS011;44652;49.040;12.126;2024-03-08T07:26:01;10.13;;;6.38;;
58874;SDS011;44652;49.040;12.126;2024-03-08T07:28:28;12.73;;;6.53;;
58874;SDS011;44652;49.040;12.126;2024-03-08T07:31:00;13.32;;;5.82;;
58874;SDS011;44652;49.040;12.126;2024-03-08T07:33:39;8.80;;;4.38;;
58874;SDS011;44652;49.040;12.126;2024-03-08T07:36:06;13.35;;;5.90;;
58874;SDS011;44652;49.040;12.126;2024-03-08T07:38:33;9.45;;;6.45;;
58874;SDS011;44652;49.040;12.126;2024-03-08T07:41:00;12.48;;;5.78;;
58874;SDS011;44652;49.040;12.126;2024-03-08T07:43:30;12.60;;;5.75;;
58874;SDS011;44652;49.040;12.126;2024-03-08T07:45:57;8.75;;;5.60;;
58874;SDS011;44652;49.040;12.126;2024-03-08T07:48:24;8.10;;;5.10;;
58874;SDS011;44652;49.040;12.126;2024-03-08T07:50:51;8.32;;;4.90;;
58874;SDS011;44652;49.040;12.126;2024-03-08T07:53:18;6.97;;;3.70;;
58874;SDS011;44652;49.040;12.126;2024-03-08T07:55:44;7.07;;;3.55;;
58874;SDS011;44652;49.040;12.126;2024-03-08T07:58:11;12.05;;;4.53;;
58874;SDS011;44652;49.040;12.126;2024-03-08T08:00:38;6.90;;;4.15;;
58874;SDS011;44652;49.040;12.126;2024-03-08T08:03:05;10.15;;;4.70;;
58874;SDS011;44652;49.040;12.126;2024-03-08T08:05:32;10.07;;;5.25;;
58874;SDS011;44652;49.040;12.126;2024-03-08T08:08:02;10.32;;;4.72;;
58874;SDS011;44652;49.040;12.126;2024-03-08T08:10:32;10.95;;;4.80;;
58874;SDS011;44652;49.040;12.126;2024-03-08T08:12:59;7.40;;;3.83;;
58874;SDS011;44652;49.040;12.126;2024-03-08T08:15:27;12.18;;;3.85;;
58874;SDS011;44652;49.040;12.126;2024-03-08T08:17:54;9.98;;;4.60;;
58874;SDS011;44652;49.040;12.126;2024-03-08T08:20:21;6.88;;;3.28;;
58874;SDS011;44652;49.040;12.126;2024-03-08T08:22:49;17.33;;;4.00;;
58874;SDS011;44652;49.040;12.126;2024-03-08T08:25:16;11.07;;;4.18;;
58874;SDS011;44652;49.040;12.126;2024-03-08T08:27:46;6.20;;;3.42;;
58874;SDS011;44652;49.040;12.126;2024-03-08T08:30:13;5.65;;;3.45;;
58874;SDS011;44652;49.040;12.126;2024-03-08T08:32:40;8.70;;;4.88;;
58874;SDS011;44652;49.040;12.126;2024-03-08T08:35:08;11.43;;;5.20;;
58874;SDS011;44652;49.040;12.126;2024-03-08T08:37:38;5.75;;;3.25;;
58874;SDS011;44652;49.040;12.126;2024-03-08T08:40:05;8.45;;;4.72;;
58874;SDS011;44652;49.040;12.126;2024-03-08T08:42:36;8.10;;;3.95;;
58874;SDS011;44652;49.040;12.126;2024-03-08T08:45:05;8.32;;;4.75;;
58874;SDS011;44652;49.040;12.126;2024-03-08T08:47:42;6.90;;;3.83;;
58874;SDS011;44652;49.040;12.126;2024-03-08T08:50:09;10.07;;;4.32;;
58874;SDS011;44652;49.040;12.126;2024-03-08T08:52:38;9.38;;;3.28;;
58874;SDS011;44652;49.040;12.126;2024-03-08T08:55:06;7.10;;;4.28;;
58874;SDS011;44652;49.040;12.126;2024-03-08T08:57:33;12.27;;;5.03;;
58874;SDS011;44652;49.040;12.126;2024-03-08T09:00:00;15.63;;;4.50;;
58874;SDS011;44652;49.040;12.126;2024-03-08T09:02:27;7.82;;;4.18;;
58874;SDS011;44652;49.040;12.126;2024-03-08T09:04:54;9.05;;;4.45;;
58874;SDS011;44652;49.040;12.126;2024-03-08T09:07:21;9.00;;;4.85;;
58874;SDS011;44652;49.040;12.126;2024-03-08T09:09:48;10.35;;;4.22;;
58874;SDS011;44652;49.040;12.126;2024-03-08T09:12:15;10.32;;;3.90;;
58874;SDS011;44652;49.040;12.126;2024-03-08T09:14:42;8.32;;;4.72;;
58874;SDS011;44652;49.040;12.126;2024-03-08T09:17:11;9.30;;;4.85;;
58874;SDS011;44652;49.040;12.126;2024-03-08T09:19:38;9.18;;;4.32;;
58874;SDS011;44652;49.040;12.126;2024-03-08T09:22:06;8.32;;;4.03;;
58874;SDS011;44652;49.040;12.126;2024-03-08T09:24:33;8.25;;;4.32;;
58874;SDS011;44652;49.040;12.126;2024-03-08T09:26:59;9.38;;;4.43;;
58874;SDS011;44652;49.040;12.126;2024-03-08T09:29:26;6.57;;;4.13;;
58874;SDS011;44652;49.040;12.126;2024-03-08T09:31:53;7.35;;;3.67;;
58874;SDS011;44652;49.040;12.126;2024-03-08T09:34:20;7.80;;;3.67;;
58874;SDS011;44652;49.040;12.126;2024-03-08T09:36:54;7.15;;;3.78;;
58874;SDS011;44652;49.040;12.126;2024-03-08T09:39:21;6.60;;;3.80;;
58874;SDS011;44652;49.040;12.126;2024-03-08T09:41:51;8.85;;;4.20;;
58874;SDS011;44652;49.040;12.126;2024-03-08T09:44:18;8.52;;;4.05;;
58874;SDS011;44652;49.040;12.126;2024-03-08T09:46:46;8.93;;;5.18;;
58874;SDS011;44652;49.040;12.126;2024-03-08T09:49:17;7.80;;;3.92;;
58874;SDS011;44652;49.040;12.126;2024-03-08T09:51:44;5.63;;;3.47;;
58874;SDS011;44652;49.040;12.126;2024-03-08T09:54:12;10.43;;;4.55;;
58874;SDS011;44652;49.040;12.126;2024-03-08T09:56:48;12.73;;;5.22;;
58874;SDS011;44652;49.040;12.126;2024-03-08T09:59:17;9.90;;;3.33;;
58874;SDS011;44652;49.040;12.126;2024-03-08T10:01:50;11.30;;;4.28;;
58874;SDS011;44652;49.040;12.126;2024-03-08T10:06:46;7.15;;;3.30;;
58874;SDS011;44652;49.040;12.126;2024-03-08T10:09:16;10.00;;;3.67;;
58874;SDS011;44652;49.040;12.126;2024-03-08T10:11:43;7.13;;;4.18;;
58874;SDS011;44652;49.040;12.126;2024-03-08T10:14:10;8.10;;;4.20;;
58874;SDS011;44652;49.040;12.126;2024-03-08T10:16:38;10.18;;;3.75;;
58874;SDS011;44652;49.040;12.126;2024-03-08T10:19:06;9.68;;;4.40;;
58874;SDS011;44652;49.040;12.126;2024-03-08T10:21:33;7.68;;;4.20;;
58874;SDS011;44652;49.040;12.126;2024-03-08T10:24:02;8.90;;;3.42;;
58874;SDS011;44652;49.040;12.126;2024-03-08T10:26:29;7.47;;;4.40;;
58874;SDS011;44652;49.040;12.126;2024-03-08T10:28:56;8.38;;;4.78;;
58874;SDS011;44652;49.040;12.126;2024-03-08T10:31:24;7.25;;;3.65;;
58874;SDS011;44652;49.040;12.126;2024-03-08T10:33:52;6.20;;;3.55;;
58874;SDS011;44652;49.040;12.126;2024-03-08T10:36:18;8.23;;;4.05;;
58874;SDS011;44652;49.040;12.126;2024-03-08T10:38:45;9.00;;;3.60;;
58874;SDS011;44652;49.040;12.126;2024-03-08T10:41:16;8.07;;;4.60;;
58874;SDS011;44652;49.040;12.126;2024-03-08T10:52:50;5.90;;;3.42;;
58874;SDS011;44652;49.040;12.126;2024-03-08T10:55:18;10.98;;;5.20;;
58874;SDS011;44652;49.040;12.126;2024-03-08T11:00:14;10.57;;;4.55;;
58874;SDS011;44652;49.040;12.126;2024-03-08T11:02:45;8.65;;;4.90;;
58874;SDS011;44652;49.040;12.126;2024-03-08T11:08:16;7.15;;;3.50;;
58874;SDS011;44652;49.040;12.126;2024-03-08T11:10:55;7.25;;;3.72;;
58874;SDS011;44652;49.040;12.126;2024-03-08T11:13:39;9.32;;;4.07;;
58874;SDS011;44652;49.040;12.126;2024-03-08T11:16:07;7.20;;;3.17;;
58874;SDS011;44652;49.040;12.126;2024-03-08T11:18:36;7.30;;;3.47;;
58874;SDS011;44652;49.040;12.126;2024-03-08T11:21:04;8.93;;;4.15;;
58874;SDS011;44652;49.040;12.126;2024-03-08T11:23:39;5.95;;;3.47;;
58874;SDS011;44652;49.040;12.126;2024-03-08T14:50:42;5.00;;;2.53;;
58874;SDS011;44652;49.040;12.126;2024-03-08T14:53:10;5.68;;;2.50;;
58874;SDS011;44652;49.040;12.126;2024-03-08T14:55:37;4.70;;;2.22;;
58874;SDS011;44652;49.040;12.126;2024-03-08T14:58:04;4.65;;;2.20;;
58874;SDS011;44652;49.040;12.126;2024-03-08T15:00:31;5.30;;;2.53;;
58874;SDS011;44652;49.040;12.126;2024-03-08T15:03:01;4.90;;;2.28;;
58874;SDS011;44652;49.040;12.126;2024-03-08T15:05:28;4.93;;;2.53;;
58874;SDS011;44652;49.040;12.126;2024-03-08T15:07:58;3.65;;;2.13;;
58874;SDS011;44652;49.040;12.126;2024-03-08T15:10:36;7.27;;;3.07;;
58874;SDS011;44652;49.040;12.126;2024-03-08T15:13:03;4.43;;;2.20;;
58874;SDS011;44652;49.040;12.126;2024-03-08T15:18:09;4.63;;;2.10;;
58874;SDS011;44652;49.040;12.126;2024-03-08T15:20:37;5.50;;;2.58;;
58874;SDS011;44652;49.040;12.126;2024-03-08T15:23:04;6.78;;;3.10;;
58874;SDS011;44652;49.040;12.126;2024-03-08T15:25:32;6.65;;;3.05;;
58874;SDS011;44652;49.040;12.126;2024-03-08T15:28:01;4.78;;;2.10;;
58874;SDS011;44652;49.040;12.126;2024-03-08T15:30:30;5.32;;;2.47;;
58874;SDS011;44652;49.040;12.126;2024-03-08T15:32:59;5.53;;;2.45;;
58874;SDS011;44652;49.040;12.126;2024-03-08T15:35:29;7.88;;;3.00;;
58874;SDS011;44652;49.040;12.126;2024-03-08T15:37:58;5.40;;;2.70;;
58874;SDS011;44652;49.040;12.126;2024-03-08T15:40:26;6.53;;;2.80;;
58874;SDS011;44652;49.040;12.126;2024-03-08T15:42:57;7.50;;;3.22;;
58874;SDS011;44652;49.040;12.126;2024-03-08T15:45:24;4.55;;;2.60;;
58874;SDS011;44652;49.040;12.126;2024-03-08T15:47:53;5.65;;;2.58;;
58874;SDS011;44652;49.040;12.126;2024-03-08T15:50:20;4.35;;;2.35;;
58874;SDS011;44652;49.040;12.126;2024-03-08T15:52:49;6.78;;;2.72;;
58874;SDS011;44652;49.040;12.126;2024-03-08T15:55:17;5.47;;;2.43;;
58874;SDS011;44652;49.040;12.126;2024-03-08T15:57:50;5.15;;;2.05;;
58874;SDS011;44652;49.040;12.126;2024-03-08T16:00:20;6.03;;;2.97;;
58874;SDS011;44652;49.040;12.126;2024-03-08T16:03:04;6.20;;;2.60;;
58874;SDS011;44652;49.040;12.126;2024-03-08T16:05:38;5.55;;;2.33;;
58874;SDS011;44652;49.040;12.126;2024-03-08T16:08:08;6.55;;;2.85;;
58874;SDS011;44652;49.040;12.126;2024-03-08T16:10:41;7.63;;;2.63;;
58874;SDS011;44652;49.040;12.126;2024-03-08T16:13:13;6.40;;;2.78;;
58874;SDS011;44652;49.040;12.126;2024-03-08T16:15:45;7.38;;;2.78;;
58874;SDS011;44652;49.040;12.126;2024-03-08T16:18:17;7.03;;;2.85;;
58874;SDS011;44652;49.040;12.126;2024-03-08T16:20:54;7.25;;;3.20;;
58874;SDS011;44652;49.040;12.126;2024-03-08T16:23:23;3.55;;;1.83;;
58874;SDS011;44652;49.040;12.126;2024-03-08T16:25:51;5.90;;;2.72;;
58874;SDS011;44652;49.040;12.126;2024-03-08T16:28:19;4.95;;;2.67;;
58874;SDS011;44652;49.040;12.126;2024-03-08T16:30:52;7.28;;;2.95;;
58874;SDS011;44652;49.040;12.126;2024-03-08T16:33:22;6.18;;;2.80;;
58874;SDS011;44652;49.040;12.126;2024-03-08T16:35:49;6.43;;;3.33;;
58874;SDS011;44652;49.040;12.126;2024-03-08T16:40:45;4.53;;;2.45;;
58874;SDS011;44652;49.040;12.126;2024-03-08T16:43:14;3.22;;;1.85;;
58874;SDS011;44652;49.040;12.126;2024-03-08T16:45:41;4.93;;;2.33;;
58874;SDS011;44652;49.040;12.126;2024-03-08T16:48:09;5.53;;;2.50;;
58874;SDS011;44652;49.040;12.126;2024-03-08T16:50:36;6.55;;;3.72;;
58874;SDS011;44652;49.040;12.126;2024-03-08T16:53:03;7.82;;;3.92;;
58874;SDS011;44652;49.040;12.126;2024-03-08T16:55:31;7.63;;;4.28;;
58874;SDS011;44652;49.040;12.126;2024-03-08T16:57:58;10.00;;;4.95;;
58874;SDS011;44652;49.040;12.126;2024-03-08T17:00:25;8.38;;;4.45;;
58874;SDS011;44652;49.040;12.126;2024-03-08T17:02:56;13.05;;;5.10;;
58874;SDS011;44652;49.040;12.126;2024-03-08T17:05:28;9.05;;;4.25;;
58874;SDS011;44652;49.040;12.126;2024-03-08T17:10:24;8.95;;;4.32;;
58874;SDS011;44652;49.040;12.126;2024-03-08T17:12:54;7.97;;;4.22;;
58874;SDS011;44652;49.040;12.126;2024-03-08T17:15:25;8.73;;;4.88;;
58874;SDS011;44652;49.040;12.126;2024-03-08T17:17:53;9.75;;;4.90;;
58874;SDS011;44652;49.040;12.126;2024-03-08T17:20:25;7.80;;;4.28;;
58874;SDS011;44652;49.040;12.126;2024-03-08T17:22:54;9.77;;;3.85;;
58874;SDS011;44652;49.040;12.126;2024-03-08T17:25:25;7.38;;;3.88;;
58874;SDS011;44652;49.040;12.126;2024-03-08T17:30:21;9.45;;;4.45;;
58874;SDS011;44652;49.040;12.126;2024-03-08T17:32:51;14.68;;;4.65;;
58874;SDS011;44652;49.040;12.126;2024-03-08T17:35:26;9.90;;;4.43;;
58874;SDS011;44652;49.040;12.126;2024-03-08T17:37:55;7.82;;;3.78;;
58874;SDS011;44652;49.040;12.126;2024-03-08T17:40:24;6.40;;;3.10;;
58874;SDS011;44652;49.040;12.126;2024-03-08T17:42:53;7.35;;;4.05;;
58874;SDS011;44652;49.040;12.126;2024-03-08T17:45:21;7.47;;;3.75;;
58874;SDS011;44652;49.040;12.126;2024-03-08T17:47:49;8.98;;;4.50;;
58874;SDS011;44652;49.040;12.126;2024-03-08T17:50:17;10.93;;;4.82;;
58874;SDS011;44652;49.040;12.126;2024-03-08T17:52:45;12.02;;;4.65;;
58874;SDS011;44652;49.040;12.126;2024-03-08T17:55:13;8.88;;;4.43;;
58874;SDS011;44652;49.040;12.126;2024-03-08T17:57:42;7.68;;;3.78;;
58874;SDS011;44652;49.040;12.126;2024-03-08T18:00:11;10.55;;;5.78;;
58874;SDS011;44652;49.040;12.126;2024-03-08T18:02:51;9.48;;;4.45;;
58874;SDS011;44652;49.040;12.126;2024-03-08T18:05:19;8.60;;;4.68;;
58874;SDS011;44652;49.040;12.126;2024-03-08T18:07:48;10.75;;;5.00;;
58874;SDS011;44652;49.040;12.126;2024-03-08T18:10:15;8.65;;;4.50;;
58874;SDS011;44652;49.040;12.126;2024-03-08T18:12:48;7.80;;;4.35;;
58874;SDS011;44652;49.040;12.126;2024-03-08T18:15:19;8.25;;;4.18;;
58874;SDS011;44652;49.040;12.126;2024-03-08T18:22:42;11.53;;;4.23;;
58874;SDS011;44652;49.040;12.126;2024-03-08T18:25:10;7.07;;;4.57;;
58874;SDS011;44652;49.040;12.126;2024-03-08T18:27:45;8.50;;;4.40;;
58874;SDS011;44652;49.040;12.126;2024-03-08T18:30:12;10.50;;;4.63;;
58874;SDS011;44652;49.040;12.126;2024-03-08T18:32:42;10.02;;;5.35;;
58874;SDS011;44652;49.040;12.126;2024-03-08T18:35:11;5.53;;;3.85;;
58874;SDS011;44652;49.040;12.126;2024-03-08T18:37:38;8.55;;;3.85;;
58874;SDS011;44652;49.040;12.126;2024-03-08T18:40:06;8.23;;;4.40;;
58874;SDS011;44652;49.040;12.126;2024-03-08T18:42:39;7.90;;;3.72;;
58874;SDS011;44652;49.040;12.126;2024-03-08T18:45:07;9.87;;;4.43;;
58874;SDS011;44652;49.040;12.126;2024-03-08T18:47:41;9.68;;;4.45;;
58874;SDS011;44652;49.040;12.126;2024-03-08T18:50:09;5.93;;;3.00;;
58874;SDS011;44652;49.040;12.126;2024-03-08T18:52:39;8.02;;;4.60;;
58874;SDS011;44652;49.040;12.126;2024-03-08T18:55:07;11.70;;;4.97;;
58874;SDS011;44652;49.040;12.126;2024-03-08T18:57:39;8.10;;;4.20;;
58874;SDS011;44652;49.040;12.126;2024-03-08T19:02:48;10.70;;;5.40;;
58874;SDS011;44652;49.040;12.126;2024-03-08T19:05:16;9.88;;;4.32;;
58874;SDS011;44652;49.040;12.126;2024-03-08T19:07:44;7.22;;;3.58;;
58874;SDS011;44652;49.040;12.126;2024-03-08T19:10:12;10.50;;;4.28;;
58874;SDS011;44652;49.040;12.126;2024-03-08T19:12:48;9.00;;;4.05;;
58874;SDS011;44652;49.040;12.126;2024-03-08T19:15:20;11.30;;;4.95;;
58874;SDS011;44652;49.040;12.126;2024-03-08T19:17:49;10.10;;;5.20;;
58874;SDS011;44652;49.040;12.126;2024-03-08T19:20:24;9.93;;;5.03;;
58874;SDS011;44652;49.040;12.126;2024-03-08T19:22:56;12.02;;;5.07;;
58874;SDS011;44652;49.040;12.126;2024-03-08T19:25:24;8.50;;;4.40;;
58874;SDS011;44652;49.040;12.126;2024-03-08T19:28:01;14.50;;;6.32;;
58874;SDS011;44652;49.040;12.126;2024-03-08T19:30:33;9.68;;;5.38;;
58874;SDS011;44652;49.040;12.126;2024-03-08T19:33:03;10.98;;;4.88;;
58874;SDS011;44652;49.040;12.126;2024-03-08T19:35:34;13.98;;;5.43;;
58874;SDS011;44652;49.040;12.126;2024-03-08T19:38:02;9.10;;;4.47;;
58874;SDS011;44652;49.040;12.126;2024-03-08T19:40:30;8.32;;;4.13;;
58874;SDS011;44652;49.040;12.126;2024-03-08T19:43:02;10.02;;;5.03;;
58874;SDS011;44652;49.040;12.126;2024-03-08T19:45:33;6.22;;;3.05;;
58874;SDS011;44652;49.040;12.126;2024-03-08T19:48:01;8.13;;;4.00;;
58874;SDS011;44652;49.040;12.126;2024-03-08T19:50:35;8.60;;;5.10;;
58874;SDS011;44652;49.040;12.126;2024-03-08T19:53:08;13.93;;;4.00;;
58874;SDS011;44652;49.040;12.126;2024-03-08T19:55:36;12.65;;;3.70;;
58874;SDS011;44652;49.040;12.126;2024-03-08T20:00:32;8.75;;;4.53;;
58874;SDS011;44652;49.040;12.126;2024-03-08T20:03:00;6.43;;;3.67;;
58874;SDS011;44652;49.040;12.126;2024-03-08T20:05:29;10.68;;;4.65;;
58874;SDS011;44652;49.040;12.126;2024-03-08T20:07:57;11.80;;;4.45;;
58874;SDS011;44652;49.040;12.126;2024-03-08T20:10:31;11.18;;;4.22;;
58874;SDS011;44652;49.040;12.126;2024-03-08T20:12:58;10.45;;;4.22;;
58874;SDS011;44652;49.040;12.126;2024-03-08T20:15:25;8.30;;;5.15;;
58874;SDS011;44652;49.040;12.126;2024-03-08T20:17:52;7.82;;;4.60;;
58874;SDS011;44652;49.040;12.126;2024-03-08T20:20:20;10.25;;;4.63;;
58874;SDS011;44652;49.040;12.126;2024-03-08T20:22:50;13.48;;;3.83;;
58874;SDS011;44652;49.040;12.126;2024-03-08T20:25:18;6.38;;;4.03;;
58874;SDS011;44652;49.040;12.126;2024-03-08T20:27:48;6.68;;;4.15;;
58874;SDS011;44652;49.040;12.126;2024-03-08T20:30:20;11.50;;;4.70;;
58874;SDS011;44652;49.040;12.126;2024-03-08T20:32:49;8.93;;;4.05;;
58874;SDS011;44652;49.040;12.126;2024-03-08T20:35:18;10.43;;;5.75;;
58874;SDS011;44652;49.040;12.126;2024-03-08T20:37:47;11.45;;;5.63;;
58874;SDS011;44652;49.040;12.126;2024-03-08T20:40:14;10.30;;;4.68;;
58874;SDS011;44652;49.040;12.126;2024-03-08T20:42:41;12.05;;;4.90;;
58874;SDS011;44652;49.040;12.126;2024-03-08T20:45:08;6.82;;;3.15;;
58874;SDS011;44652;49.040;12.126;2024-03-08T20:47:35;8.95;;;4.63;;
58874;SDS011;44652;49.040;12.126;2024-03-08T20:50:07;10.15;;;4.22;;
58874;SDS011;44652;49.040;12.126;2024-03-08T20:52:34;12.65;;;4.90;;
58874;SDS011;44652;49.040;12.126;2024-03-08T20:55:01;12.55;;;3.95;;
58874;SDS011;44652;49.040;12.126;2024-03-08T20:57:31;7.70;;;3.42;;
58874;SDS011;44652;49.040;12.126;2024-03-08T20:59:59;10.27;;;4.95;;
58874;SDS011;44652;49.040;12.126;2024-03-08T21:02:30;12.10;;;5.93;;
58874;SDS011;44652;49.040;12.126;2024-03-08T21:04:57;7.60;;;4.22;;
58874;SDS011;44652;49.040;12.126;2024-03-08T21:07:24;12.10;;;4.80;;
58874;SDS011;44652;49.040;12.126;2024-03-08T21:09:51;5.57;;;3.47;;
58874;SDS011;44652;49.040;12.126;2024-03-08T21:12:18;9.48;;;3.85;;
58874;SDS011;44652;49.040;12.126;2024-03-08T21:14:50;13.52;;;4.65;;
58874;SDS011;44652;49.040;12.126;2024-03-08T21:17:17;6.32;;;3.53;;
58874;SDS011;44652;49.040;12.126;2024-03-08T21:19:45;6.50;;;4.65;;
58874;SDS011;44652;49.040;12.126;2024-03-08T21:22:12;5.97;;;2.85;;
58874;SDS011;44652;49.040;12.126;2024-03-08T21:24:39;7.00;;;3.65;;
58874;SDS011;44652;49.040;12.126;2024-03-08T21:27:06;6.43;;;3.83;;
58874;SDS011;44652;49.040;12.126;2024-03-08T21:29:34;10.10;;;4.00;;
58874;SDS011;44652;49.040;12.126;2024-03-08T21:32:01;8.18;;;4.18;;
58874;SDS011;44652;49.040;12.126;2024-03-08T21:34:32;7.45;;;4.07;;
58874;SDS011;44652;49.040;12.126;2024-03-08T21:37:00;5.78;;;4.05;;
58874;SDS011;44652;49.040;12.126;2024-03-08T21:39:27;7.60;;;2.97;;
58874;SDS011;44652;49.040;12.126;2024-03-08T21:41:54;8.25;;;4.13;;
58874;SDS011;44652;49.040;12.126;2024-03-08T21:44:21;7.25;;;3.95;;
58874;SDS011;44652;49.040;12.126;2024-03-08T21:46:48;7.88;;;3.30;;
58874;SDS011;44652;49.040;12.126;2024-03-08T21:49:15;7.63;;;3.50;;
58874;SDS011;44652;49.040;12.126;2024-03-08T21:51:42;8.95;;;3.25;;
58874;SDS011;44652;49.040;12.126;2024-03-08T21:54:12;6.40;;;3.88;;
58874;SDS011;44652;49.040;12.126;2024-03-08T21:56:39;8.93;;;3.10;;
58874;SDS011;44652;49.040;12.126;2024-03-08T21:59:06;7.10;;;4.18;;
58874;SDS011;44652;49.040;12.126;2024-03-08T22:01:34;8.82;;;3.90;;
58874;SDS011;44652;49.040;12.126;2024-03-08T22:04:00;11.10;;;4.50;;
58874;SDS011;44652;49.040;12.126;2024-03-08T22:06:27;8.13;;;4.32;;
58874;SDS011;44652;49.040;12.126;2024-03-08T22:08:54;8.05;;;4.45;;
58874;SDS011;44652;49.040;12.126;2024-03-08T22:11:21;8.48;;;3.70;;
58874;SDS011;44652;49.040;12.126;2024-03-08T22:13:48;5.13;;;3.13;;
58874;SDS011;44652;49.040;12.126;2024-03-08T22:16:14;6.97;;;4.10;;
58874;SDS011;44652;49.040;12.126;2024-03-08T22:18:41;6.32;;;3.90;;
58874;SDS011;44652;49.040;12.126;2024-03-08T22:21:08;7.55;;;4.25;;
58874;SDS011;44652;49.040;12.126;2024-03-08T22:23:35;7.45;;;4.55;;
58874;SDS011;44652;49.040;12.126;2024-03-08T22:26:03;11.73;;;5.07;;
58874;SDS011;44652;49.040;12.126;2024-03-08T22:28:35;10.35;;;3.33;;
58874;SDS011;44652;49.040;12.126;2024-03-08T22:31:02;11.98;;;4.32;;
58874;SDS011;44652;49.040;12.126;2024-03-08T22:33:32;11.23;;;5.25;;
58874;SDS011;44652;49.040;12.126;2024-03-08T22:36:00;6.95;;;3.83;;
58874;SDS011;44652;49.040;12.126;2024-03-08T22:38:26;6.43;;;2.65;;
58874;SDS011;44652;49.040;12.126;2024-03-08T22:40:53;7.53;;;3.03;;
58874;SDS011;44652;49.040;12.126;2024-03-08T22:43:20;6.82;;;3.33;;
58874;SDS011;44652;49.040;12.126;2024-03-08T22:45:47;8.95;;;4.63;;
58874;SDS011;44652;49.040;12.126;2024-03-08T22:48:15;8.05;;;4.18;;
58874;SDS011;44652;49.040;12.126;2024-03-08T22:50:42;8.30;;;4.13;;
58874;SDS011;44652;49.040;12.126;2024-03-08T22:53:09;9.30;;;4.20;;
58874;SDS011;44652;49.040;12.126;2024-03-08T22:55:43;13.32;;;3.30;;
58874;SDS011;44652;49.040;12.126;2024-03-08T22:58:10;7.25;;;4.25;;
58874;SDS011;44652;49.040;12.126;2024-03-08T23:00:37;8.30;;;3.15;;
58874;SDS011;44652;49.040;12.126;2024-03-08T23:03:04;5.85;;;3.50;;
58874;SDS011;44652;49.040;12.126;2024-03-08T23:05:39;11.15;;;3.05;;
58874;SDS011;44652;49.040;12.126;2024-03-08T23:08:08;7.43;;;3.88;;
58874;SDS011;44652;49.040;12.126;2024-03-08T23:10:35;3.78;;;2.42;;
58874;SDS011;44652;49.040;12.126;2024-03-08T23:13:05;4.75;;;3.10;;
58874;SDS011;44652;49.040;12.126;2024-03-08T23:15:32;9.32;;;3.72;;
58874;SDS011;44652;49.040;12.126;2024-03-08T23:17:59;7.45;;;2.45;;
58874;SDS011;44652;49.040;12.126;2024-03-08T23:20:26;4.18;;;2.38;;
58874;SDS011;44652;49.040;12.126;2024-03-08T23:22:59;5.43;;;2.72;;
58874;SDS011;44652;49.040;12.126;2024-03-08T23:25:31;6.90;;;2.70;;
58874;SDS011;44652;49.040;12.126;2024-03-08T23:27:58;5.55;;;2.88;;
58874;SDS011;44652;49.040;12.126;2024-03-08T23:30:33;6.70;;;3.35;;
58874;SDS011;44652;49.040;12.126;2024-03-08T23:33:09;8.50;;;4.15;;
58874;SDS011;44652;49.040;12.126;2024-03-08T23:35:41;4.82;;;2.83;;
58874;SDS011;44652;49.040;12.126;2024-03-08T23:38:11;6.70;;;3.72;;
58874;SDS011;44652;49.040;12.126;2024-03-08T23:40:39;4.68;;;3.35;;
58874;SDS011;44652;49.040;12.126;2024-03-08T23:43:06;6.28;;;2.45;;
58874;SDS011;44652;49.040;12.126;2024-03-08T23:45:34;4.95;;;3.40;;
58874;SDS011;44652;49.040;12.126;2024-03-08T23:48:01;4.20;;;2.50;;
58874;SDS011;44652;49.040;12.126;2024-03-08T23:50:28;7.53;;;4.47;;
58874;SDS011;44652;49.040;12.126;2024-03-08T23:52:58;5.00;;;2.70;;
58874;SDS011;44652;49.040;12.126;2024-03-08T23:55:30;8.88;;;2.88;;
58874;SDS011;44652;49.040;12.126;2024-03-08T23:58:00;14.88;;;4.07;;
